Time;durP1;ratioP1;P1;durP2;ratioP2;P2;SDS_P1;SDS_P2;PMS_P1;PMS_P2;Temp;Humidity;BMP_temperature;BMP_pressure;BME280_temperature;BME280_humidity;BME280_pressure;Samples;Min_cycle;Max_cycle;Signal;HPM_P1;HPM_P2
2023/09/02 00:00:59;;;;;;;0.30;0.30;;;11.70;99.90;;;;;;5004059;28;20507;-74
2023/09/02 00:03:25;;;;;;;0.28;0.28;;;11.70;99.90;;;;;;5013413;28;20542;-74
2023/09/02 00:05:51;;;;;;;0.30;0.30;;;11.70;99.90;;;;;;5007542;28;20064;-73
2023/09/02 00:08:16;;;;;;;0.40;0.40;;;11.60;99.90;;;;;;5006022;28;20057;-73
2023/09/02 00:10:42;;;;;;;0.30;0.30;;;11.80;99.90;;;;;;5010512;28;20081;-74
2023/09/02 00:13:08;;;;;;;0.40;0.40;;;11.70;99.90;;;;;;5009452;28;20041;-74
2023/09/02 00:15:33;;;;;;;0.40;0.40;;;11.60;99.90;;;;;;5006374;28;20049;-74
2023/09/02 00:17:59;;;;;;;0.40;0.40;;;11.60;99.90;;;;;;5016048;28;20482;-73
2023/09/02 00:20:25;;;;;;;0.40;0.40;;;11.60;99.90;;;;;;5007335;28;20105;-73
2023/09/02 00:22:51;;;;;;;0.40;0.40;;;11.60;99.90;;;;;;5006528;28;20050;-73
2023/09/02 00:25:16;;;;;;;0.77;0.77;;;11.60;99.90;;;;;;5006231;28;20478;-73
2023/09/02 00:27:42;;;;;;;0.45;0.45;;;11.50;99.90;;;;;;5006333;28;20057;-73
2023/09/02 00:30:08;;;;;;;0.30;0.30;;;11.50;99.90;;;;;;5008613;28;20488;-74
2023/09/02 00:32:34;;;;;;;;;;;11.60;99.90;;;;;;5012155;28;20137;-74
2023/09/02 00:34:59;;;;;;;0.40;0.40;;;11.80;99.90;;;;;;5008529;28;20433;-74
2023/09/02 00:37:25;;;;;;;0.40;0.40;;;11.60;99.90;;;;;;5006180;28;20529;-74
2023/09/02 00:39:51;;;;;;;0.40;0.40;;;11.40;99.90;;;;;;5008118;28;20042;-74
2023/09/02 00:42:19;;;;;;;0.30;0.30;;;11.60;99.90;;;;;;5005622;28;20052;-75
2023/09/02 00:44:47;;;;;;;0.40;0.40;;;11.50;99.90;;;;;;5010176;28;20041;-74
2023/09/02 00:47:13;;;;;;;0.40;0.40;;;11.50;99.90;;;;;;5008185;28;20053;-73
2023/09/02 00:49:38;;;;;;;0.40;0.40;;;11.50;99.90;;;;;;5012916;28;20111;-73
2023/09/02 00:52:04;;;;;;;0.50;0.50;;;11.50;99.90;;;;;;5007628;28;20049;-74
2023/09/02 00:54:32;;;;;;;0.40;0.40;;;11.50;99.90;;;;;;5005393;28;20056;-74
2023/09/02 00:56:58;;;;;;;0.40;0.40;;;11.30;99.90;;;;;;5007036;28;20046;-74
2023/09/02 00:59:24;;;;;;;;;;;11.30;99.90;;;;;;5006486;28;20127;-74
2023/09/02 01:01:50;;;;;;;0.40;0.40;;;11.40;99.90;;;;;;5009723;28;20362;-73
2023/09/02 01:04:16;;;;;;;0.40;0.40;;;11.30;99.90;;;;;;5010882;28;20429;-74
2023/09/02 01:06:42;;;;;;;0.20;0.20;;;11.30;99.90;;;;;;5004801;28;20399;-74
2023/09/02 01:09:09;;;;;;;0.30;0.30;;;11.40;99.90;;;;;;5006148;28;20056;-74
2023/09/02 01:11:35;;;;;;;0.43;0.43;;;11.40;99.90;;;;;;5008091;28;20123;-74
2023/09/02 01:14:01;;;;;;;0.40;0.40;;;11.30;99.90;;;;;;5009810;28;20471;-74
2023/09/02 01:16:27;;;;;;;0.30;0.30;;;11.30;99.90;;;;;;5005871;28;20123;-74
2023/09/02 01:18:53;;;;;;;0.40;0.40;;;11.20;99.90;;;;;;5007692;28;20050;-74
2023/09/02 01:21:48;;;;;;;0.40;0.40;;;11.20;99.90;;;;;;5005010;28;20048;-74
2023/09/02 01:24:27;;;;;;;0.40;0.40;;;11.20;99.90;;;;;;5008571;28;20046;-74
2023/09/02 01:27:07;;;;;;;0.47;0.47;;;11.20;99.90;;;;;;5008516;28;20038;-74
2023/09/02 01:29:43;;;;;;;0.30;0.30;;;11.10;99.90;;;;;;5006520;28;20053;-75
2023/09/02 01:32:12;;;;;;;0.40;0.40;;;11.10;99.90;;;;;;5004824;28;20053;-74
2023/09/02 01:34:39;;;;;;;0.32;0.32;;;11.10;99.90;;;;;;5001293;28;20504;-74
2023/09/02 01:37:08;;;;;;;0.40;0.40;;;11.10;99.90;;;;;;5010320;28;20807;-74
2023/09/02 01:39:37;;;;;;;0.30;0.30;;;11.10;99.90;;;;;;5019914;28;20041;-75
2023/09/02 01:42:05;;;;;;;0.30;0.30;;;11.00;99.90;;;;;;5007719;28;20038;-74
2023/09/02 01:44:31;;;;;;;0.40;0.40;;;11.00;99.90;;;;;;5006666;28;20410;-75
2023/09/02 01:46:58;;;;;;;0.40;0.40;;;11.00;99.90;;;;;;5007705;28;20642;-74
2023/09/02 01:49:23;;;;;;;;;;;10.90;99.90;;;;;;5008087;28;20049;-75
2023/09/02 01:51:49;;;;;;;0.40;0.40;;;11.00;99.90;;;;;;5004886;28;20285;-74
2023/09/02 01:54:15;;;;;;;0.40;0.40;;;11.00;99.90;;;;;;5006346;28;20069;-74
2023/09/02 01:56:41;;;;;;;0.30;0.30;;;10.90;99.90;;;;;;5014164;28;20122;-74
2023/09/02 01:59:06;;;;;;;0.30;0.30;;;11.00;99.90;;;;;;5010572;28;20046;-74
2023/09/02 02:01:34;;;;;;;0.40;0.40;;;11.10;99.90;;;;;;5008799;28;20049;-75
2023/09/02 02:04:08;;;;;;;0.40;0.40;;;10.90;99.90;;;;;;5013801;28;20045;-74
2023/09/02 02:06:38;;;;;;;0.40;0.40;;;10.90;99.90;;;;;;5009479;28;20077;-75
2023/09/02 02:09:06;;;;;;;0.40;0.40;;;11.00;99.90;;;;;;5014753;28;20058;-74
2023/09/02 02:11:38;;;;;;;0.40;0.40;;;10.90;99.90;;;;;;5010095;28;20552;-74
2023/09/02 02:14:05;;;;;;;0.35;0.35;;;10.60;99.90;;;;;;5010813;28;20540;-74
2023/09/02 02:16:32;;;;;;;0.25;0.25;;;10.70;99.90;;;;;;5008110;28;20045;-75
2023/09/02 02:18:59;;;;;;;0.45;0.45;;;10.80;99.90;;;;;;5012213;28;20053;-74
2023/09/02 02:21:26;;;;;;;0.35;0.35;;;10.80;99.90;;;;;;5008564;28;20560;-74
2023/09/02 02:23:52;;;;;;;0.35;0.35;;;10.80;99.90;;;;;;5024270;28;20096;-74
2023/09/02 02:26:18;;;;;;;0.40;0.40;;;10.70;99.90;;;;;;5006062;28;20045;-74
2023/09/02 02:28:43;;;;;;;0.52;0.43;;;10.60;99.90;;;;;;5016799;28;20050;-74
2023/09/02 02:31:09;;;;;;;0.40;0.40;;;10.30;99.90;;;;;;5012821;28;20050;-74
2023/09/02 02:33:39;;;;;;;0.40;0.40;;;10.60;99.90;;;;;;5013322;28;20547;-74
2023/09/02 02:36:05;;;;;;;0.40;0.40;;;10.80;99.90;;;;;;5008003;28;20092;-74
2023/09/02 02:38:31;;;;;;;0.40;0.40;;;10.60;99.90;;;;;;5010476;28;20418;-75
2023/09/02 02:40:56;;;;;;;0.32;0.32;;;10.60;99.90;;;;;;5011029;28;20049;-74
2023/09/02 02:43:25;;;;;;;0.40;0.40;;;10.50;99.90;;;;;;5006108;28;20046;-74
2023/09/02 02:45:52;;;;;;;0.30;0.30;;;10.40;99.90;;;;;;5007693;28;20117;-75
2023/09/02 02:48:19;;;;;;;0.40;0.40;;;10.50;99.90;;;;;;5017270;28;20048;-74
2023/09/02 02:50:44;;;;;;;0.40;0.40;;;10.40;99.90;;;;;;5009132;28;20042;-75
2023/09/02 02:53:10;;;;;;;0.40;0.40;;;10.40;99.90;;;;;;5022668;28;20049;-74
2023/09/02 02:55:36;;;;;;;0.40;0.40;;;10.40;99.90;;;;;;5008747;28;20069;-74
2023/09/02 02:58:01;;;;;;;0.30;0.30;;;10.50;99.90;;;;;;5023742;28;20038;-74
2023/09/02 03:00:27;;;;;;;0.30;0.30;;;10.40;99.90;;;;;;5008896;28;20053;-74
2023/09/02 03:02:53;;;;;;;0.40;0.40;;;10.40;99.90;;;;;;5008360;28;20463;-75
2023/09/02 03:05:20;;;;;;;0.30;0.30;;;10.40;99.90;;;;;;5008376;28;20402;-75
2023/09/02 03:07:47;;;;;;;0.30;0.30;;;10.40;99.90;;;;;;5012347;28;20073;-75
2023/09/02 03:10:13;;;;;;;0.40;0.40;;;10.40;99.90;;;;;;5013680;28;20095;-74
2023/09/02 03:12:38;;;;;;;0.40;0.40;;;10.40;99.90;;;;;;5007921;28;20077;-74
2023/09/02 03:15:05;;;;;;;0.35;0.35;;;10.30;99.90;;;;;;5007951;28;20092;-74
2023/09/02 03:17:31;;;;;;;0.40;0.40;;;10.20;99.90;;;;;;5013004;28;20132;-74
2023/09/02 03:19:56;;;;;;;0.35;0.35;;;10.30;99.90;;;;;;5011088;28;20143;-75
2023/09/02 03:22:22;;;;;;;0.50;0.50;;;10.40;99.90;;;;;;5012786;28;20045;-74
2023/09/02 03:24:55;;;;;;;0.40;0.40;;;10.30;99.90;;;;;;5009785;28;20474;-74
2023/09/02 03:27:21;;;;;;;0.47;0.47;;;10.30;99.90;;;;;;5010715;28;20500;-74
2023/09/02 03:29:50;;;;;;;0.40;0.40;;;10.30;99.90;;;;;;5009219;28;20188;-75
2023/09/02 03:32:16;;;;;;;0.40;0.40;;;10.20;99.90;;;;;;5005332;28;20073;-74
2023/09/02 03:34:42;;;;;;;0.43;0.43;;;10.40;99.90;;;;;;5008247;28;20046;-74
2023/09/02 03:37:08;;;;;;;0.40;0.40;;;10.30;99.90;;;;;;5004669;28;20040;-74
2023/09/02 03:39:34;;;;;;;0.40;0.40;;;10.20;99.90;;;;;;5010065;28;20048;-74
2023/09/02 03:42:00;;;;;;;0.40;0.40;;;10.30;99.90;;;;;;5009689;28;20042;-74
2023/09/02 03:44:26;;;;;;;0.40;0.40;;;10.30;99.90;;;;;;5008263;28;20046;-75
2023/09/02 03:46:52;;;;;;;0.40;0.40;;;10.30;99.90;;;;;;5014104;28;20107;-74
2023/09/02 03:49:17;;;;;;;0.30;0.30;;;10.40;99.90;;;;;;5011478;28;20057;-74
2023/09/02 03:51:43;;;;;;;0.40;0.40;;;10.40;99.90;;;;;;5010502;28;20050;-74
2023/09/02 03:54:09;;;;;;;0.30;0.30;;;10.50;99.90;;;;;;5008488;28;20521;-75
2023/09/02 03:56:36;;;;;;;;;;;10.70;99.90;;;;;;5006870;28;20046;-75
2023/09/02 03:59:11;;;;;;;0.50;0.50;;;10.50;99.90;;;;;;5013956;28;19921;-75
2023/09/02 04:01:37;;;;;;;0.30;0.30;;;10.40;99.90;;;;;;5012895;28;20069;-74
2023/09/02 04:04:03;;;;;;;0.40;0.40;;;10.50;99.90;;;;;;5004686;28;20038;-74
2023/09/02 04:06:28;;;;;;;;;;;10.50;99.90;;;;;;5010534;28;20136;-74
2023/09/02 04:08:54;;;;;;;0.40;0.40;;;10.50;99.90;;;;;;5037524;28;20051;-75
2023/09/02 04:11:21;;;;;;;0.30;0.30;;;10.70;99.90;;;;;;5007349;28;20048;-75
2023/09/02 04:13:46;;;;;;;0.40;0.40;;;10.60;99.90;;;;;;5006845;28;20057;-74
2023/09/02 04:16:12;;;;;;;0.40;0.40;;;10.60;99.90;;;;;;5004633;28;20119;-74
2023/09/02 04:18:38;;;;;;;0.40;0.40;;;10.50;99.90;;;;;;5009326;28;20046;-74
2023/09/02 04:21:04;;;;;;;0.30;0.30;;;10.60;99.90;;;;;;5006500;28;20137;-74
2023/09/02 04:23:30;;;;;;;;;;;10.60;99.90;;;;;;5010788;28;20040;-74
2023/09/02 04:25:57;;;;;;;0.40;0.40;;;10.70;99.90;;;;;;5011904;28;20425;-74
2023/09/02 04:28:23;;;;;;;0.30;0.30;;;10.50;99.90;;;;;;5015680;28;20197;-74
2023/09/02 04:30:49;;;;;;;0.40;0.40;;;10.60;99.90;;;;;;5006954;28;20093;-74
2023/09/02 04:33:16;;;;;;;0.40;0.40;;;10.60;99.90;;;;;;5011860;28;20116;-74
2023/09/02 04:35:43;;;;;;;0.30;0.30;;;10.70;99.90;;;;;;5007151;28;20179;-74
2023/09/02 04:38:10;;;;;;;0.40;0.40;;;10.70;99.90;;;;;;5016872;28;20128;-74
2023/09/02 04:40:40;;;;;;;0.30;0.30;;;10.70;99.90;;;;;;4999491;28;20049;-73
2023/09/02 04:43:08;;;;;;;0.30;0.30;;;10.80;99.90;;;;;;5007376;28;20144;-74
2023/09/02 04:45:35;;;;;;;0.32;0.32;;;10.80;99.90;;;;;;5006631;28;20052;-75
2023/09/02 04:48:02;;;;;;;0.47;0.47;;;10.80;99.90;;;;;;5003608;28;20445;-74
2023/09/02 04:50:28;;;;;;;0.20;0.20;;;10.80;99.90;;;;;;5000086;28;20053;-74
2023/09/02 04:52:55;;;;;;;0.40;0.40;;;10.90;99.90;;;;;;5009877;28;20057;-74
2023/09/02 04:55:21;;;;;;;0.30;0.30;;;10.80;99.90;;;;;;5009070;28;20752;-74
2023/09/02 04:57:46;;;;;;;0.40;0.40;;;10.80;99.90;;;;;;4999946;28;20057;-74
2023/09/02 05:00:13;;;;;;;0.40;0.40;;;10.90;99.90;;;;;;5005256;28;20655;-74
2023/09/02 05:02:41;;;;;;;0.60;0.60;;;10.90;99.90;;;;;;5003359;28;20048;-74
2023/09/02 05:05:07;;;;;;;0.30;0.30;;;10.90;99.90;;;;;;5004203;28;20049;-74
2023/09/02 05:07:33;;;;;;;0.35;0.35;;;10.90;99.90;;;;;;5015597;28;20057;-74
2023/09/02 05:09:59;;;;;;;0.30;0.30;;;11.00;99.90;;;;;;5003674;28;20509;-74
2023/09/02 05:12:24;;;;;;;0.40;0.40;;;11.00;99.90;;;;;;5002961;28;20049;-75
2023/09/02 05:14:50;;;;;;;0.40;0.40;;;11.00;99.90;;;;;;5002549;28;20030;-74
2023/09/02 05:17:16;;;;;;;0.38;0.38;;;11.10;99.90;;;;;;5002261;28;20045;-74
2023/09/02 05:19:41;;;;;;;0.30;0.30;;;11.10;99.90;;;;;;5003941;28;20069;-73
2023/09/02 05:22:08;;;;;;;0.40;0.40;;;11.00;99.90;;;;;;5002180;28;20046;-73
2023/09/02 05:24:33;;;;;;;0.32;0.32;;;11.00;99.90;;;;;;5000489;28;20053;-74
2023/09/02 05:26:59;;;;;;;0.40;0.40;;;11.00;99.90;;;;;;5002006;28;20064;-73
2023/09/02 05:29:25;;;;;;;0.38;0.38;;;10.90;99.90;;;;;;5004611;28;20134;-74
2023/09/02 05:31:50;;;;;;;0.30;0.30;;;11.10;99.90;;;;;;5004543;28;20038;-74
2023/09/02 05:34:16;;;;;;;0.40;0.40;;;10.90;99.90;;;;;;5008851;28;20061;-74
2023/09/02 05:36:42;;;;;;;0.30;0.30;;;11.00;99.90;;;;;;5005467;28;20068;-74
2023/09/02 05:39:07;;;;;;;0.30;0.30;;;11.00;99.90;;;;;;5038428;28;20081;-74
2023/09/02 05:41:33;;;;;;;0.40;0.40;;;11.00;99.90;;;;;;5004921;28;20057;-74
2023/09/02 05:43:59;;;;;;;0.32;0.32;;;11.20;99.90;;;;;;5005214;28;20037;-75
2023/09/02 05:46:25;;;;;;;0.30;0.30;;;11.30;99.90;;;;;;5011883;28;20045;-74
2023/09/02 05:48:51;;;;;;;0.30;0.30;;;11.30;99.90;;;;;;5006400;28;20562;-74
2023/09/02 05:51:16;;;;;;;0.22;0.22;;;11.30;99.90;;;;;;5009968;28;20099;-75
2023/09/02 05:53:43;;;;;;;0.20;0.20;;;11.40;99.90;;;;;;5005560;28;20129;-75
2023/09/02 05:56:08;;;;;;;0.30;0.30;;;11.40;99.90;;;;;;5013200;28;20081;-75
2023/09/02 05:58:34;;;;;;;0.30;0.30;;;11.60;99.90;;;;;;5014547;28;20120;-75
2023/09/02 06:01:06;;;;;;;0.35;0.35;;;11.60;99.90;;;;;;5012891;28;20116;-75
2023/09/02 06:03:31;;;;;;;0.30;0.30;;;11.70;99.90;;;;;;5007167;28;20064;-75
2023/09/02 06:05:57;;;;;;;0.20;0.20;;;11.80;99.90;;;;;;5009667;28;20506;-75
2023/09/02 06:08:23;;;;;;;0.45;0.45;;;11.80;99.90;;;;;;5009290;28;20057;-75
2023/09/02 06:10:58;;;;;;;;;;;12.00;99.90;;;;;;5015499;28;20517;-74
2023/09/02 06:13:24;;;;;;;0.40;0.40;;;12.00;99.90;;;;;;5015584;28;19929;-74
2023/09/02 06:15:50;;;;;;;0.30;0.30;;;12.10;99.90;;;;;;5011436;28;20103;-75
2023/09/02 06:18:15;;;;;;;0.30;0.30;;;12.00;99.90;;;;;;5018108;28;20045;-74
2023/09/02 06:20:41;;;;;;;0.30;0.30;;;12.30;99.90;;;;;;5015713;28;20119;-75
2023/09/02 06:23:06;;;;;;;0.30;0.30;;;12.40;99.90;;;;;;5012635;28;20041;-74
2023/09/02 06:25:32;;;;;;;0.32;0.32;;;12.40;99.90;;;;;;5014046;28;20129;-74
2023/09/02 06:27:58;;;;;;;0.30;0.30;;;12.50;99.90;;;;;;5013343;28;20052;-75
2023/09/02 06:30:24;;;;;;;0.40;0.40;;;12.70;99.90;;;;;;5011144;28;20534;-74
2023/09/02 06:32:49;;;;;;;0.30;0.30;;;12.80;99.90;;;;;;5016740;28;20164;-74
2023/09/02 06:35:15;;;;;;;0.40;0.40;;;12.90;99.90;;;;;;5011582;28;20053;-74
2023/09/02 06:37:42;;;;;;;0.47;0.47;;;13.00;99.90;;;;;;5009190;28;20339;-75
2023/09/02 06:40:08;;;;;;;0.30;0.30;;;13.00;99.90;;;;;;5011348;28;20195;-74
2023/09/02 06:42:33;;;;;;;;;;;13.30;99.90;;;;;;5007230;28;20050;-75
2023/09/02 06:45:00;;;;;;;0.30;0.30;;;13.30;99.90;;;;;;5007276;28;20272;-74
2023/09/02 06:47:25;;;;;;;0.38;0.38;;;13.40;99.90;;;;;;5007458;28;20111;-75
2023/09/02 06:49:51;;;;;;;0.40;0.40;;;13.60;99.90;;;;;;5007919;28;20049;-75
2023/09/02 06:52:17;;;;;;;0.40;0.40;;;13.70;99.90;;;;;;4988690;28;20945;-75
2023/09/02 06:54:42;;;;;;;0.30;0.30;;;13.70;99.90;;;;;;5005834;28;20062;-75
2023/09/02 06:57:08;;;;;;;;;;;13.90;99.90;;;;;;5008985;28;20402;-74
2023/09/02 06:59:34;;;;;;;0.25;0.25;;;14.10;99.90;;;;;;5008300;28;21366;-75
2023/09/02 07:02:00;;;;;;;0.38;0.38;;;14.30;99.90;;;;;;5012863;28;20050;-74
2023/09/02 07:04:25;;;;;;;1.02;0.93;;;14.40;99.90;;;;;;5006006;28;20042;-75
2023/09/02 07:06:51;;;;;;;0.32;0.32;;;14.50;99.90;;;;;;5004939;28;20049;-75
2023/09/02 07:09:17;;;;;;;;;;;14.70;99.90;;;;;;5004776;28;20038;-75
2023/09/02 07:11:43;;;;;;;0.30;0.30;;;14.80;99.90;;;;;;5007302;28;19948;-74
2023/09/02 07:14:08;;;;;;;0.20;0.20;;;14.90;99.90;;;;;;5015693;28;20104;-74
2023/09/02 07:16:34;;;;;;;0.30;0.30;;;15.10;99.90;;;;;;5007757;28;20058;-74
2023/09/02 07:19:03;;;;;;;;;;;15.20;99.90;;;;;;5008578;28;20046;-74
2023/09/02 07:21:29;;;;;;;0.50;0.50;;;15.30;99.90;;;;;;5008790;28;19932;-74
2023/09/02 07:23:54;;;;;;;0.60;0.60;;;15.40;99.90;;;;;;5009837;28;20041;-74
2023/09/02 07:26:20;;;;;;;0.35;0.35;;;15.60;99.90;;;;;;5008302;28;20069;-75
2023/09/02 07:28:46;;;;;;;;;;;15.70;99.90;;;;;;5012395;28;20049;-74
2023/09/02 07:31:12;;;;;;;0.30;0.30;;;15.80;99.90;;;;;;5012789;28;19922;-74
2023/09/02 07:33:39;;;;;;;0.40;0.40;;;16.00;99.90;;;;;;5013002;28;20453;-74
2023/09/02 07:36:09;;;;;;;0.30;0.30;;;15.90;99.90;;;;;;5005131;28;20045;-75
2023/09/02 07:38:35;;;;;;;0.30;0.30;;;16.50;99.90;;;;;;5012345;28;20053;-74
2023/09/02 07:41:00;;;;;;;;;;;16.40;99.90;;;;;;5014878;28;20817;-74
2023/09/02 07:43:26;;;;;;;0.28;0.28;;;16.60;99.90;;;;;;5013641;28;19925;-74
2023/09/02 07:45:52;;;;;;;;;;;;;;;;;;5016244;28;20384;-74
2023/09/02 07:48:18;;;;;;;0.40;0.40;;;;;;;;;;5001084;28;19963;-74
2023/09/02 07:50:44;;;;;;;;;;;;;;;;;;5020905;28;20054;-75
2023/09/02 07:53:10;;;;;;;0.40;0.40;;;;;;;;;;5008499;28;20678;-74
2023/09/02 07:55:36;;;;;;;;;;;;;;;;;;5017194;28;20058;-74
2023/09/02 07:58:02;;;;;;;0.30;0.30;;;;;;;;;;5004634;28;20314;-74
2023/09/02 08:00:28;;;;;;;;;;;17.00;99.90;;;;;;5004978;28;20054;-75
2023/09/02 08:02:54;;;;;;;0.93;0.93;;;17.00;99.90;;;;;;5009496;28;19933;-75
2023/09/02 08:05:20;;;;;;;0.57;0.57;;;;;;;;;;5010693;28;20144;-74
2023/09/02 08:07:46;;;;;;;;;;;;;;;;;;5004393;28;20050;-73
2023/09/02 08:10:12;;;;;;;0.40;0.40;;;;;;;;;;5014221;28;19971;-73
2023/09/02 08:12:39;;;;;;;0.30;0.30;;;;;;;;;;5011368;28;20045;-73
2023/09/02 08:15:05;;;;;;;0.88;0.43;;;;;;;;;;5005701;28;20041;-74
2023/09/02 08:17:36;;;;;;;0.20;0.20;;;;;;;;;;5011136;28;20049;-74
2023/09/02 08:20:02;;;;;;;0.20;0.20;;;;;;;;;;5010386;28;20080;-75
2023/09/02 08:22:28;;;;;;;0.30;0.30;;;17.80;99.90;;;;;;5015396;28;20049;-75
2023/09/02 08:24:55;;;;;;;;;;;17.80;99.90;;;;;;5010698;28;20813;-74
2023/09/02 08:27:20;;;;;;;0.30;0.30;;;17.90;99.90;;;;;;5013101;28;19971;-74
2023/09/02 08:29:46;;;;;;;;;;;17.90;99.90;;;;;;5005096;28;20049;-75
2023/09/02 08:32:12;;;;;;;0.30;0.30;;;;;;;;;;5003039;28;19942;-75
2023/09/02 08:34:38;;;;;;;0.30;0.30;;;;;;;;;;5004622;28;20103;-74
2023/09/02 08:37:04;;;;;;;0.28;0.28;;;18.10;99.90;;;;;;5003204;28;20050;-75
2023/09/02 08:39:30;;;;;;;0.30;0.30;;;18.10;99.90;;;;;;5003784;28;20042;-76
2023/09/02 08:41:56;;;;;;;;;;;18.20;99.90;;;;;;5007314;28;20052;-75
2023/09/02 08:44:25;;;;;;;0.45;0.45;;;18.30;99.90;;;;;;5003744;28;19937;-75
2023/09/02 08:46:53;;;;;;;0.30;0.30;;;18.30;99.90;;;;;;5022977;28;20046;-76
2023/09/02 08:49:20;;;;;;;0.30;0.30;;;18.40;99.90;;;;;;4997612;28;20053;-75
2023/09/02 08:51:46;;;;;;;0.40;0.40;;;18.50;99.90;;;;;;5010296;28;20632;-75
2023/09/02 08:54:14;;;;;;;0.20;0.20;;;18.60;99.90;;;;;;4999703;28;20223;-75
2023/09/02 08:56:41;;;;;;;0.45;0.45;;;18.60;99.90;;;;;;5009636;28;20037;-75
2023/09/02 08:59:09;;;;;;;0.20;0.20;;;18.80;99.90;;;;;;4998501;28;20624;-75
2023/09/02 09:01:40;;;;;;;0.30;0.30;;;18.70;99.90;;;;;;5004265;28;20132;-75
2023/09/02 09:04:07;;;;;;;0.40;0.40;;;18.90;99.90;;;;;;5015390;28;20045;-73
2023/09/02 09:06:36;;;;;;;0.20;0.20;;;18.70;99.90;;;;;;5018492;28;20513;-75
2023/09/02 09:09:02;;;;;;;0.30;0.30;;;19.00;99.90;;;;;;5009088;28;20049;-74
2023/09/02 09:11:35;;;;;;;1.30;1.30;;;18.90;99.90;;;;;;5017393;28;20050;-75
2023/09/02 09:14:02;;;;;;;0.40;0.40;;;19.00;99.90;;;;;;5009208;28;20521;-74
2023/09/02 09:16:31;;;;;;;0.32;0.32;;;19.00;99.90;;;;;;5007840;28;20058;-74
2023/09/02 09:19:01;;;;;;;0.32;0.32;;;19.20;99.90;;;;;;5002794;28;20050;-75
2023/09/02 09:21:27;;;;;;;0.40;0.40;;;19.00;99.90;;;;;;5010700;28;21753;-74
2023/09/02 09:23:52;;;;;;;;;;;19.10;99.90;;;;;;5006966;28;20041;-75
2023/09/02 09:26:19;;;;;;;0.30;0.30;;;19.30;99.90;;;;;;5012384;28;19921;-74
2023/09/02 09:28:56;;;;;;;0.32;0.32;;;19.20;99.90;;;;;;5010204;28;20063;-74
2023/09/02 09:31:23;;;;;;;0.32;0.32;;;19.20;99.90;;;;;;5007563;28;20612;-74
2023/09/02 09:34:00;;;;;;;0.38;0.38;;;19.20;99.90;;;;;;5006423;28;20205;-75
2023/09/02 09:36:30;;;;;;;0.30;0.30;;;19.20;99.90;;;;;;5005381;28;20149;-74
2023/09/02 09:39:01;;;;;;;0.20;0.20;;;19.10;99.90;;;;;;5013857;28;20042;-74
2023/09/02 09:41:28;;;;;;;0.28;0.28;;;19.00;99.90;;;;;;5010014;28;20125;-75
2023/09/02 09:44:07;;;;;;;0.75;0.43;;;19.00;99.90;;;;;;5010924;28;20554;-73
2023/09/02 09:46:53;;;;;;;0.30;0.30;;;19.20;99.90;;;;;;5009370;28;20050;-74
2023/09/02 09:49:32;;;;;;;0.40;0.40;;;19.10;99.90;;;;;;5008848;28;20041;-74
2023/09/02 09:52:00;;;;;;;0.30;0.30;;;19.40;99.90;;;;;;5011745;28;20084;-74
2023/09/02 09:54:47;;;;;;;0.30;0.30;;;19.40;99.90;;;;;;5013725;28;20103;-74
2023/09/02 09:57:29;;;;;;;;;;;19.60;99.90;;;;;;5010256;28;20034;-73
2023/09/02 09:59:55;;;;;;;0.30;0.30;;;19.60;99.90;;;;;;5006840;28;20004;-74
2023/09/02 10:02:21;;;;;;;0.22;0.22;;;19.60;99.90;;;;;;5009103;28;20129;-74
2023/09/02 10:04:55;;;;;;;0.45;0.32;;;19.60;99.90;;;;;;5008799;28;20049;-75
2023/09/02 10:07:27;;;;;;;0.20;0.20;;;19.50;99.90;;;;;;5012151;28;20048;-74
2023/09/02 10:09:54;;;;;;;0.30;0.30;;;19.50;99.90;;;;;;5010263;28;20060;-75
2023/09/02 10:12:21;;;;;;;0.20;0.20;;;19.50;99.90;;;;;;5008861;28;20152;-75
2023/09/02 10:14:47;;;;;;;0.30;0.30;;;19.50;99.90;;;;;;5011790;28;20042;-74
2023/09/02 10:17:14;;;;;;;0.30;0.30;;;19.60;99.90;;;;;;5007789;28;20069;-74
2023/09/02 10:19:41;;;;;;;0.20;0.20;;;19.60;99.90;;;;;;5013890;28;20054;-74
2023/09/02 10:22:07;;;;;;;0.30;0.30;;;19.50;99.90;;;;;;5011129;28;20053;-74
2023/09/02 10:24:56;;;;;;;0.20;0.20;;;19.80;99.90;;;;;;5010861;28;20490;-74
2023/09/02 10:27:23;;;;;;;0.22;0.22;;;20.00;99.90;;;;;;5010976;28;20128;-74
2023/09/02 10:29:57;;;;;;;0.20;0.20;;;20.30;99.90;;;;;;5005695;28;20057;-74
2023/09/02 10:32:36;;;;;;;0.25;0.25;;;20.70;99.90;;;;;;5011084;28;20045;-74
2023/09/02 10:35:12;;;;;;;0.32;0.30;;;21.00;99.90;;;;;;5009529;28;20066;-74
2023/09/02 10:37:41;;;;;;;;;;;21.20;99.90;;;;;;5005006;28;20049;-74
2023/09/02 10:40:24;;;;;;;0.77;0.77;;;21.40;99.90;;;;;;5015322;28;19925;-72
2023/09/02 10:42:50;;;;;;;0.40;0.40;;;21.10;99.90;;;;;;5012489;28;20461;-75
2023/09/02 10:45:18;;;;;;;0.30;0.30;;;21.40;99.90;;;;;;5004333;28;20080;-75
2023/09/02 10:47:48;;;;;;;0.82;0.82;;;21.30;99.90;;;;;;5005082;28;20057;-75
2023/09/02 10:50:18;;;;;;;0.30;0.30;;;21.20;99.90;;;;;;5023408;28;20128;-74
2023/09/02 10:52:44;;;;;;;0.50;0.50;;;21.10;99.90;;;;;;5012428;28;20092;-74
2023/09/02 10:55:11;;;;;;;1.40;1.30;;;21.00;99.90;;;;;;5013594;28;20088;-74
2023/09/02 10:57:50;;;;;;;0.30;0.30;;;21.10;99.90;;;;;;5006969;28;20108;-73
2023/09/02 11:00:20;;;;;;;0.50;0.50;;;21.30;99.90;;;;;;5001964;28;20049;-74
2023/09/02 11:02:53;;;;;;;0.68;0.68;;;21.50;99.90;;;;;;5008145;28;20486;-74
2023/09/02 11:05:20;;;;;;;0.50;0.50;;;21.40;99.90;;;;;;5003085;28;20042;-74
2023/09/02 11:07:47;;;;;;;0.30;0.30;;;21.30;99.90;;;;;;5004936;28;20045;-74
2023/09/02 11:10:13;;;;;;;0.32;0.32;;;21.30;99.90;;;;;;5007728;28;20108;-74
2023/09/02 11:13:00;;;;;;;1.02;0.50;;;21.40;99.90;;;;;;5008402;28;20042;-74
2023/09/02 11:15:30;;;;;;;2.75;1.33;;;21.40;99.90;;;;;;5006762;28;20050;-75
2023/09/02 11:17:56;;;;;;;0.70;0.70;;;21.40;99.90;;;;;;5008483;28;20057;-75
2023/09/02 11:20:28;;;;;;;0.98;0.60;;;21.40;99.90;;;;;;5010455;28;20132;-75
2023/09/02 11:23:02;;;;;;;3.53;0.50;;;21.40;99.90;;;;;;5007360;28;20081;-75
2023/09/02 11:25:31;;;;;;;0.63;0.63;;;21.50;99.90;;;;;;5007801;28;20093;-75
2023/09/02 11:28:02;;;;;;;1.13;0.98;;;21.60;99.90;;;;;;5008748;28;21350;-74
2023/09/02 11:30:31;;;;;;;0.63;0.63;;;21.70;99.90;;;;;;5008619;28;20081;-74
2023/09/02 11:32:58;;;;;;;0.30;0.30;;;21.80;99.90;;;;;;5007789;28;20669;-74
2023/09/02 11:35:37;;;;;;;0.28;0.28;;;21.90;99.90;;;;;;5009556;28;20133;-75
2023/09/02 11:38:16;;;;;;;0.63;0.47;;;22.00;99.90;;;;;;5022044;28;20127;-74
2023/09/02 11:40:42;;;;;;;0.40;0.40;;;22.20;99.90;;;;;;5008887;28;20053;-75
2023/09/02 11:43:08;;;;;;;0.63;0.60;;;22.40;99.90;;;;;;5008511;28;20042;-75
2023/09/02 11:45:38;;;;;;;0.82;0.70;;;22.40;99.90;;;;;;5004179;28;20054;-75
2023/09/02 11:48:04;;;;;;;0.25;0.25;;;22.30;99.90;;;;;;5005184;28;20524;-76
2023/09/02 11:50:30;;;;;;;0.40;0.40;;;21.90;99.90;;;;;;5011836;28;20121;-74
2023/09/02 11:52:57;;;;;;;0.43;0.43;;;21.50;99.90;;;;;;5011169;28;20295;-75
2023/09/02 11:55:23;;;;;;;0.40;0.30;;;21.20;99.90;;;;;;5010705;28;20064;-75
2023/09/02 11:57:50;;;;;;;0.25;0.25;;;20.90;99.90;;;;;;5008163;28;20434;-75
2023/09/02 12:00:21;;;;;;;0.40;0.40;;;20.80;99.90;;;;;;5021944;28;20726;-75
2023/09/02 12:02:47;;;;;;;0.20;0.20;;;20.70;99.90;;;;;;5017332;28;20045;-74
2023/09/02 12:05:14;;;;;;;0.20;0.20;;;20.80;99.90;;;;;;5025802;28;20049;-75
2023/09/02 12:07:42;;;;;;;0.30;0.30;;;20.90;99.90;;;;;;5000467;28;20064;-76
2023/09/02 12:10:10;;;;;;;0.20;0.20;;;21.00;99.90;;;;;;5008613;28;20054;-75
2023/09/02 12:12:41;;;;;;;0.52;0.52;;;21.20;99.90;;;;;;5007466;28;20517;-76
2023/09/02 12:15:11;;;;;;;0.98;0.40;;;21.20;99.90;;;;;;5013497;28;20120;-74
2023/09/02 12:17:38;;;;;;;0.30;0.30;;;21.20;99.90;;;;;;5007071;28;20038;-75
2023/09/02 12:20:05;;;;;;;0.20;0.20;;;21.30;99.90;;;;;;5007398;28;20042;-75
2023/09/02 12:22:31;;;;;;;0.45;0.20;;;21.40;99.90;;;;;;5011351;28;20069;-74
2023/09/02 12:24:56;;;;;;;0.20;0.20;;;21.50;99.90;;;;;;5007949;28;20152;-75
2023/09/02 12:27:22;;;;;;;;;;;21.50;99.90;;;;;;5009319;28;20076;-74
2023/09/02 12:29:58;;;;;;;0.38;0.35;;;21.50;99.90;;;;;;5003510;28;19986;-75
2023/09/02 12:32:24;;;;;;;0.43;0.43;;;21.60;99.90;;;;;;5009808;28;20057;-74
2023/09/02 12:34:49;;;;;;;0.63;0.63;;;21.70;99.90;;;;;;5021420;28;20061;-75
2023/09/02 12:37:22;;;;;;;0.40;0.40;;;21.70;99.90;;;;;;5008398;28;20128;-75
2023/09/02 12:39:51;;;;;;;0.50;0.40;;;21.80;99.90;;;;;;5007751;28;20042;-75
2023/09/02 12:42:24;;;;;;;0.25;0.25;;;21.80;99.90;;;;;;5007009;28;20544;-75
2023/09/02 12:44:58;;;;;;;0.30;0.30;;;22.00;99.90;;;;;;5008627;28;20478;-75
2023/09/02 12:47:25;;;;;;;0.20;0.20;;;22.10;99.90;;;;;;4989462;28;20064;-75
2023/09/02 12:49:55;;;;;;;0.17;0.17;;;22.20;99.90;;;;;;5005435;28;20061;-76
2023/09/02 12:52:22;;;;;;;0.30;0.30;;;22.40;99.90;;;;;;5021158;28;20601;-74
2023/09/02 12:54:55;;;;;;;0.43;0.43;;;22.40;99.90;;;;;;5010259;28;20045;-73
2023/09/02 12:57:26;;;;;;;0.25;0.25;;;22.50;99.90;;;;;;5011463;28;20050;-75
2023/09/02 12:59:52;;;;;;;0.20;0.20;;;22.60;99.90;;;;;;5021984;28;20442;-75